createdAt,value
2022-07-28T00:01:01.846Z,11.90
2022-07-28T00:03:58.710Z,12.04
2022-07-28T00:06:55.536Z,11.94
2022-07-28T00:09:58.263Z,12.04
2022-07-28T00:12:57.232Z,11.82
2022-07-28T00:15:54.167Z,11.86
2022-07-28T00:18:51.052Z,11.88
2022-07-28T00:21:48.255Z,11.89
2022-07-28T00:24:45.253Z,12.04
2022-07-28T00:27:42.173Z,12.05
2022-07-28T00:30:39.164Z,12.12
2022-07-28T00:33:37.118Z,12.09
2022-07-28T00:36:33.989Z,12.30
2022-07-28T00:39:30.845Z,12.07
2022-07-28T00:42:27.709Z,12.04
2022-07-28T00:45:24.572Z,12.15
2022-07-28T00:48:21.427Z,12.15
2022-07-28T00:51:21.551Z,12.25
2022-07-28T00:54:18.468Z,12.28
2022-07-28T00:57:15.338Z,12.08
2022-07-28T01:00:12.675Z,12.10
2022-07-28T01:03:10.443Z,12.08
2022-07-28T01:06:17.589Z,12.12
2022-07-28T01:09:50.220Z,12.04
2022-07-28T01:13:04.089Z,12.01
2022-07-28T01:16:05.268Z,12.16
2022-07-28T01:19:09.913Z,12.17
2022-07-28T01:22:11.197Z,12.24
2022-07-28T01:25:23.465Z,12.42
2022-07-28T01:28:59.292Z,12.35
2022-07-28T01:32:13.370Z,12.56
2022-07-28T01:35:19.540Z,12.60
2022-07-28T01:38:18.983Z,12.60
2022-07-28T01:41:21.177Z,12.69
2022-07-28T01:44:23.089Z,12.74
2022-07-28T01:47:23.808Z,12.72
2022-07-28T01:50:23.950Z,12.82
2022-07-28T01:53:22.707Z,12.86
2022-07-28T01:56:21.610Z,12.88
2022-07-28T01:59:19.321Z,12.88
2022-07-28T02:02:18.795Z,12.93
2022-07-28T02:05:22.157Z,12.99
2022-07-28T02:08:22.497Z,13.04
2022-07-28T02:11:37.812Z,12.97
2022-07-28T02:14:36.410Z,13.06
2022-07-28T02:17:35.180Z,13.02
2022-07-28T02:20:32.578Z,13.02
2022-07-28T02:23:29.902Z,12.86
2022-07-28T02:26:35.367Z,12.79
2022-07-28T02:29:51.901Z,12.84
2022-07-28T02:32:53.901Z,12.79
2022-07-28T02:35:57.574Z,12.75
2022-07-28T02:39:02.642Z,12.69
2022-07-28T02:42:07.269Z,12.68
2022-07-28T02:45:08.354Z,12.65
2022-07-28T02:48:14.796Z,12.60
2022-07-28T02:51:13.773Z,12.68
2022-07-28T02:54:12.389Z,12.61
2022-07-28T02:57:12.338Z,12.59
2022-07-28T03:00:11.230Z,12.56
2022-07-28T03:03:09.803Z,12.51
2022-07-28T03:06:06.813Z,12.58
2022-07-28T03:09:04.218Z,12.61
2022-07-28T03:12:04.747Z,12.48
2022-07-28T03:15:01.594Z,12.65
2022-07-28T03:18:00.841Z,12.57
2022-07-28T03:20:58.372Z,12.57
2022-07-28T03:23:55.846Z,12.60
2022-07-28T03:27:07.537Z,12.59
2022-07-28T03:30:11.441Z,12.53
2022-07-28T03:33:08.446Z,12.51
2022-07-28T03:36:15.469Z,12.44
2022-07-28T03:39:15.739Z,12.48
2022-07-28T03:42:15.748Z,12.54
2022-07-28T03:45:13.493Z,12.48
2022-07-28T03:48:10.355Z,12.41
2022-07-28T03:51:07.215Z,12.56
2022-07-28T03:54:04.281Z,12.76
2022-07-28T03:57:01.220Z,12.65
2022-07-28T03:59:58.046Z,12.65
2022-07-28T04:02:54.932Z,12.74
2022-07-28T04:05:51.946Z,12.87
2022-07-28T04:08:48.778Z,12.82
2022-07-28T04:11:45.948Z,12.69
2022-07-28T04:14:42.772Z,12.69
2022-07-28T04:17:39.686Z,12.73
2022-07-28T04:20:36.615Z,12.85
2022-07-28T04:23:33.659Z,12.64
2022-07-28T04:26:30.771Z,12.62
2022-07-28T04:29:27.760Z,12.73
2022-07-28T04:32:24.714Z,12.75
2022-07-28T04:35:24.244Z,12.66
2022-07-28T04:38:21.138Z,12.68
2022-07-28T04:41:18.064Z,12.85
2022-07-28T04:44:17.284Z,12.92
2022-07-28T04:47:14.603Z,12.87
2022-07-28T04:50:15.162Z,12.97
2022-07-28T04:53:12.860Z,12.90
2022-07-28T04:56:10.078Z,13.00
2022-07-28T04:59:07.187Z,13.05
2022-07-28T05:02:04.400Z,13.01
2022-07-28T05:05:01.307Z,13.12
2022-07-28T05:07:58.252Z,13.09
2022-07-28T05:10:56.377Z,13.26
2022-07-28T05:13:53.351Z,13.46
2022-07-28T05:16:50.278Z,13.25
2022-07-28T05:19:47.154Z,13.26
2022-07-28T05:22:50.938Z,13.34
2022-07-28T05:25:47.932Z,13.41
2022-07-28T05:28:44.860Z,13.48
2022-07-28T05:31:41.845Z,13.51
2022-07-28T05:34:38.811Z,13.52
2022-07-28T05:37:37.164Z,13.49
2022-07-28T05:40:34.040Z,13.54
2022-07-28T05:43:30.929Z,13.60
2022-07-28T05:46:28.490Z,13.54
2022-07-28T05:49:25.450Z,13.64
2022-07-28T05:52:22.324Z,13.71
2022-07-28T05:55:19.498Z,13.84
2022-07-28T05:58:16.494Z,13.77
2022-07-28T06:01:13.395Z,13.81
2022-07-28T06:04:26.581Z,13.82
2022-07-28T06:07:42.874Z,13.89
2022-07-28T06:10:58.994Z,13.90
2022-07-28T06:13:55.854Z,14.02
2022-07-28T06:16:52.797Z,14.18
2022-07-28T06:19:49.667Z,14.14
2022-07-28T06:22:49.695Z,14.19
2022-07-28T06:25:47.926Z,14.20
2022-07-28T06:28:44.946Z,14.26
2022-07-28T06:31:41.832Z,14.25
2022-07-28T06:34:38.820Z,14.49
2022-07-28T06:37:35.706Z,14.64
2022-07-28T06:40:33.039Z,14.63
2022-07-28T06:43:30.617Z,14.86
2022-07-28T06:46:27.664Z,14.84
2022-07-28T06:49:24.685Z,14.75
2022-07-28T06:52:22.153Z,14.84
2022-07-28T06:55:19.030Z,15.08
2022-07-28T06:58:16.010Z,15.06
2022-07-28T07:01:14.742Z,15.20
2022-07-28T07:04:11.943Z,15.16
2022-07-28T07:07:14.902Z,15.23
2022-07-28T07:10:14.241Z,15.42
2022-07-28T07:13:11.141Z,15.40
2022-07-28T07:16:10.834Z,15.41
2022-07-28T07:19:10.448Z,15.50
2022-07-28T07:22:09.479Z,15.75
2022-07-28T07:25:14.968Z,15.79
2022-07-28T07:28:11.929Z,15.80
2022-07-28T07:31:08.906Z,15.86
2022-07-28T07:34:06.544Z,16.18
2022-07-28T07:37:03.379Z,16.10
2022-07-28T07:40:01.615Z,16.05
2022-07-28T07:42:58.502Z,16.39
2022-07-28T07:45:55.347Z,16.37
2022-07-28T07:48:52.277Z,16.60
2022-07-28T07:51:49.152Z,16.38
2022-07-28T07:54:46.168Z,16.48
2022-07-28T07:57:44.260Z,16.82
2022-07-28T08:00:41.084Z,16.95
2022-07-28T08:03:38.008Z,17.01
2022-07-28T08:06:36.250Z,17.12
2022-07-28T08:09:36.695Z,17.29
2022-07-28T08:12:33.991Z,17.37
2022-07-28T08:15:31.159Z,17.87
2022-07-28T08:18:28.001Z,17.68
2022-07-28T08:21:26.285Z,17.61
2022-07-28T08:24:32.647Z,17.80
2022-07-28T08:27:30.759Z,18.04
2022-07-28T08:30:32.420Z,18.04
2022-07-28T08:33:30.493Z,18.57
2022-07-28T08:36:28.136Z,19.19
2022-07-28T08:39:24.976Z,19.44
2022-07-28T08:43:00.758Z,19.84
2022-07-28T08:46:01.234Z,20.13
2022-07-28T08:48:58.384Z,19.69
2022-07-28T08:51:57.936Z,19.34
2022-07-28T08:54:57.973Z,19.51
2022-07-28T08:57:58.665Z,20.23
2022-07-28T09:00:55.743Z,19.53
2022-07-28T09:03:52.845Z,19.75
2022-07-28T09:06:49.783Z,19.63
2022-07-28T09:09:49.606Z,20.98
2022-07-28T09:12:46.750Z,20.69
2022-07-28T09:15:46.380Z,19.95
2022-07-28T09:18:43.330Z,20.44
2022-07-28T09:21:43.147Z,20.59
2022-07-28T09:24:44.506Z,21.25
2022-07-28T09:27:45.032Z,21.55
2022-07-28T09:30:53.929Z,21.36
2022-07-28T09:34:09.133Z,21.96
2022-07-28T09:37:06.072Z,21.64
2022-07-28T09:40:14.749Z,21.14
2022-07-28T09:43:11.682Z,21.65
2022-07-28T09:46:17.697Z,21.69
2022-07-28T09:49:14.837Z,22.00
2022-07-28T09:52:12.420Z,22.34
2022-07-28T09:55:11.760Z,21.86
2022-07-28T09:58:11.552Z,21.73
2022-07-28T10:01:15.606Z,22.21
2022-07-28T10:04:13.381Z,21.96
2022-07-28T10:07:15.736Z,22.55
2022-07-28T10:10:12.578Z,22.90
2022-07-28T10:13:09.632Z,22.83
2022-07-28T10:16:13.078Z,22.51
2022-07-28T10:19:10.068Z,23.18
2022-07-28T10:22:08.170Z,23.36
2022-07-28T10:25:12.514Z,23.54
2022-07-28T10:28:11.509Z,23.78
2022-07-28T10:31:14.335Z,23.08
2022-07-28T10:34:24.657Z,22.95
2022-07-28T10:37:25.556Z,23.02
2022-07-28T10:40:26.597Z,22.88
2022-07-28T10:43:26.462Z,22.65
2022-07-28T10:46:24.735Z,23.34
2022-07-28T10:49:22.254Z,24.38
2022-07-28T10:56:09.789Z,23.49
2022-07-28T10:59:29.063Z,24.17
2022-07-28T11:02:46.974Z,23.67
2022-07-28T11:05:46.173Z,24.06
2022-07-28T11:08:43.023Z,23.87
2022-07-28T11:11:57.889Z,23.87
2022-07-28T11:14:56.049Z,24.10
2022-07-28T11:18:08.799Z,24.09
2022-07-28T11:21:07.912Z,24.16
2022-07-28T11:24:08.073Z,24.70
2022-07-28T11:27:04.920Z,24.80
2022-07-28T11:30:01.775Z,24.10
2022-07-28T11:33:00.538Z,24.39
2022-07-28T11:35:59.284Z,24.28
2022-07-28T11:39:26.655Z,24.53
2022-07-28T11:42:34.413Z,24.99
2022-07-28T11:45:38.501Z,24.61
2022-07-28T11:48:40.435Z,25.26
2022-07-28T11:51:40.378Z,25.30
2022-07-28T11:54:51.626Z,24.96
2022-07-28T11:57:52.055Z,25.02
2022-07-28T12:00:50.746Z,25.91
2022-07-28T12:03:55.534Z,26.53
2022-07-28T12:06:53.531Z,25.83
2022-07-28T12:09:51.258Z,26.57
2022-07-28T12:13:00.726Z,26.91
2022-07-28T12:15:57.576Z,25.98
2022-07-28T12:18:55.275Z,25.37
2022-07-28T12:21:56.824Z,27.01
2022-07-28T12:24:58.050Z,25.89
2022-07-28T12:27:56.102Z,25.62
2022-07-28T12:30:53.264Z,25.46
2022-07-28T12:33:53.655Z,25.96
2022-07-28T12:36:51.682Z,26.31
2022-07-28T12:39:51.581Z,26.41
2022-07-28T12:42:53.919Z,26.35
2022-07-28T12:45:50.938Z,26.31
2022-07-28T12:48:48.529Z,26.15
2022-07-28T12:51:45.500Z,27.00
2022-07-28T12:54:42.591Z,27.50
2022-07-28T12:57:52.675Z,26.36
2022-07-28T13:00:51.021Z,28.32
2022-07-28T13:03:53.519Z,27.12
2022-07-28T13:06:56.928Z,28.61
2022-07-28T13:10:11.461Z,26.71
2022-07-28T13:13:09.406Z,26.90
2022-07-28T13:16:17.430Z,26.82
2022-07-28T13:19:21.691Z,27.58
2022-07-28T13:22:30.581Z,27.60
2022-07-28T13:25:28.286Z,27.20
2022-07-28T13:28:28.692Z,26.65
2022-07-28T13:31:25.582Z,28.10
2022-07-28T13:34:22.494Z,27.28
2022-07-28T13:37:19.490Z,26.98
2022-07-28T13:40:17.082Z,26.55
2022-07-28T13:43:13.911Z,26.20
2022-07-28T13:46:10.959Z,25.19
2022-07-28T13:49:07.865Z,25.59
2022-07-28T13:52:07.338Z,25.61
2022-07-28T13:55:10.428Z,25.58
2022-07-28T13:58:10.149Z,26.04
2022-07-28T14:01:07.109Z,25.39
2022-07-28T14:04:04.866Z,26.07
2022-07-28T14:07:01.787Z,25.80
2022-07-28T14:09:58.671Z,26.08
2022-07-28T14:12:56.481Z,26.77
2022-07-28T14:16:02.179Z,25.55
2022-07-28T14:19:02.633Z,25.78
2022-07-28T14:21:59.458Z,25.68
2022-07-28T14:24:56.389Z,26.04
2022-07-28T14:27:54.643Z,25.37
2022-07-28T14:30:51.476Z,25.52
2022-07-28T14:33:53.972Z,25.59
2022-07-28T14:36:53.101Z,25.99
2022-07-28T14:39:49.958Z,25.98
2022-07-28T14:42:46.921Z,25.81
2022-07-28T14:46:00.699Z,25.51
2022-07-28T14:49:00.887Z,25.52
2022-07-28T14:51:59.290Z,25.37
2022-07-28T14:54:57.554Z,25.59
2022-07-28T14:57:55.239Z,26.59
2022-07-28T15:00:52.457Z,25.95
2022-07-28T15:03:49.297Z,26.39
2022-07-28T15:06:47.254Z,26.16
2022-07-28T15:09:50.136Z,26.30
2022-07-28T15:12:47.390Z,25.60
2022-07-28T15:15:44.859Z,25.42
2022-07-28T15:18:41.840Z,26.13
2022-07-28T15:21:40.594Z,26.21
2022-07-28T15:24:37.555Z,25.94
2022-07-28T15:27:34.389Z,25.85
2022-07-28T15:30:31.255Z,25.89
2022-07-28T15:33:30.900Z,25.50
2022-07-28T15:36:30.178Z,25.71
2022-07-28T15:39:27.099Z,25.66
2022-07-28T15:42:27.953Z,25.65
2022-07-28T15:45:25.509Z,25.45
2022-07-28T15:48:23.545Z,25.26
2022-07-28T15:51:25.808Z,25.57
2022-07-28T15:54:22.987Z,25.51
2022-07-28T15:57:19.853Z,25.63
2022-07-28T16:00:17.689Z,25.18
2022-07-28T16:03:14.650Z,25.16
2022-07-28T16:06:11.583Z,25.07
2022-07-28T16:09:08.741Z,24.98
2022-07-28T16:12:05.887Z,25.01
2022-07-28T16:15:10.866Z,25.15
2022-07-28T16:18:07.716Z,25.38
2022-07-28T16:21:08.534Z,25.13
2022-07-28T16:24:07.218Z,25.31
2022-07-28T16:27:04.412Z,25.18
2022-07-28T16:30:03.017Z,25.16
2022-07-28T16:33:00.065Z,25.12
2022-07-28T16:35:56.956Z,25.44
2022-07-28T16:38:53.852Z,25.14
2022-07-28T16:41:52.757Z,25.04
2022-07-28T16:44:49.922Z,24.68
2022-07-28T16:47:46.830Z,24.61
2022-07-28T16:50:46.212Z,24.60
2022-07-28T16:53:43.188Z,24.58
2022-07-28T16:56:40.069Z,24.45
2022-07-28T16:59:41.927Z,24.54
2022-07-28T17:02:45.353Z,24.52
2022-07-28T17:05:42.586Z,24.05
2022-07-28T17:08:39.440Z,24.01
2022-07-28T17:11:36.334Z,23.98
2022-07-28T17:14:33.176Z,23.88
2022-07-28T17:17:30.064Z,24.23
2022-07-28T17:20:26.991Z,23.68
2022-07-28T17:23:23.829Z,23.73
2022-07-28T17:29:37.729Z,23.40
2022-07-28T17:32:34.630Z,23.40
2022-07-28T17:35:35.224Z,23.44
2022-07-28T17:38:33.419Z,23.79
2022-07-28T17:41:30.480Z,23.36
2022-07-28T17:44:27.350Z,23.44
2022-07-28T17:47:35.845Z,23.22
2022-07-28T17:50:33.390Z,23.21
2022-07-28T17:53:30.327Z,23.04
2022-07-28T17:56:27.233Z,22.88
2022-07-28T17:59:26.613Z,23.01
2022-07-28T18:02:34.200Z,23.23
2022-07-28T18:05:33.244Z,22.80
2022-07-28T18:08:30.232Z,22.83
2022-07-28T18:11:27.897Z,22.62
2022-07-28T18:14:29.311Z,22.80
2022-07-28T18:17:26.732Z,22.73
2022-07-28T18:20:24.378Z,22.85
2022-07-28T18:23:21.864Z,22.73
2022-07-28T18:26:18.702Z,22.33
2022-07-28T18:29:15.609Z,22.67
2022-07-28T18:32:12.576Z,22.08
2022-07-28T18:35:10.398Z,21.93
2022-07-28T18:38:07.281Z,21.96
2022-07-28T18:41:04.182Z,22.26
2022-07-28T18:44:01.032Z,21.89
2022-07-28T18:46:57.923Z,21.54
2022-07-28T18:49:58.246Z,21.33
2022-07-28T18:52:55.095Z,21.17
2022-07-28T18:55:52.183Z,21.23
2022-07-28T18:58:51.777Z,21.20
2022-07-28T19:01:48.697Z,21.01
2022-07-28T19:04:47.130Z,20.89
2022-07-28T19:07:43.964Z,20.99
2022-07-28T19:10:40.911Z,20.72
2022-07-28T19:13:37.766Z,20.75
2022-07-28T19:16:34.607Z,20.61
2022-07-28T19:19:33.043Z,20.25
2022-07-28T19:22:29.930Z,20.24
2022-07-28T19:25:28.794Z,20.37
2022-07-28T19:28:25.720Z,20.09
2022-07-28T19:31:22.652Z,20.28
2022-07-28T19:34:19.803Z,20.26
2022-07-28T19:37:17.284Z,20.12
2022-07-28T19:40:14.354Z,20.11
2022-07-28T19:43:11.258Z,20.42
2022-07-28T19:46:10.200Z,20.11
2022-07-28T19:49:07.461Z,20.26
2022-07-28T19:52:04.707Z,20.18
2022-07-28T19:55:01.658Z,19.79
2022-07-28T19:58:01.487Z,19.86
2022-07-28T20:00:58.984Z,19.73
2022-07-28T20:04:01.576Z,19.57
2022-07-28T20:07:01.134Z,19.44
2022-07-28T20:10:00.806Z,19.47
2022-07-28T20:12:57.657Z,19.33
2022-07-28T20:15:54.562Z,19.26
2022-07-28T20:18:52.281Z,19.54
2022-07-28T20:21:49.114Z,19.37
2022-07-28T20:24:46.044Z,19.27
2022-07-28T20:27:43.057Z,19.19
2022-07-28T20:30:40.133Z,19.20
2022-07-28T20:33:37.049Z,19.17
2022-07-28T20:36:37.193Z,19.10
2022-07-28T20:39:45.095Z,19.16
2022-07-28T20:42:43.683Z,19.14
2022-07-28T20:45:40.541Z,19.10
2022-07-28T20:48:37.534Z,19.05
2022-07-28T20:51:34.437Z,19.15
2022-07-28T20:54:32.367Z,18.92
2022-07-28T20:57:29.207Z,18.84
2022-07-28T21:00:26.047Z,18.75
2022-07-28T21:03:22.891Z,18.93
2022-07-28T21:06:19.743Z,18.89
2022-07-28T21:09:17.319Z,18.73
2022-07-28T21:12:14.196Z,18.63
2022-07-28T21:15:11.872Z,18.59
2022-07-28T21:18:09.518Z,18.74
2022-07-28T21:21:06.373Z,18.61
2022-07-28T21:24:03.555Z,18.61
2022-07-28T21:27:00.383Z,18.81
2022-07-28T21:32:52.992Z,18.66
2022-07-28T21:35:50.295Z,18.48
2022-07-28T21:38:47.143Z,18.48
2022-07-28T21:41:43.973Z,18.46
2022-07-28T21:44:40.888Z,18.57
2022-07-28T21:47:37.730Z,18.40
2022-07-28T21:50:37.424Z,18.47
2022-07-28T21:53:34.265Z,18.30
2022-07-28T21:56:34.220Z,18.33
2022-07-28T21:59:31.088Z,18.28
2022-07-28T22:02:28.212Z,18.43
2022-07-28T22:05:26.065Z,18.18
2022-07-28T22:08:24.122Z,18.04
2022-07-28T22:11:23.931Z,18.28
2022-07-28T22:14:20.806Z,18.11
2022-07-28T22:17:17.654Z,18.08
2022-07-28T22:20:14.606Z,18.15
2022-07-28T22:23:28.370Z,18.06
2022-07-28T22:26:26.236Z,18.21
2022-07-28T22:29:23.080Z,18.04
2022-07-28T22:32:27.013Z,17.85
2022-07-28T22:35:26.753Z,17.97
2022-07-28T22:38:23.907Z,18.06
2022-07-28T22:41:21.521Z,18.00
2022-07-28T22:44:18.812Z,17.85
2022-07-28T22:47:16.083Z,17.94
2022-07-28T22:50:13.017Z,17.82
2022-07-28T22:53:09.932Z,17.84
2022-07-28T22:56:09.290Z,17.69
2022-07-28T22:59:07.378Z,17.85
2022-07-28T23:02:04.224Z,17.67
2022-07-28T23:05:01.508Z,17.80
2022-07-28T23:07:58.983Z,17.67
2022-07-28T23:10:55.969Z,17.74
2022-07-28T23:13:52.815Z,17.62
2022-07-28T23:16:49.860Z,17.52
2022-07-28T23:19:46.841Z,17.40
2022-07-28T23:22:43.753Z,17.42
2022-07-28T23:25:43.091Z,17.51
2022-07-28T23:28:39.983Z,17.40
2022-07-28T23:31:36.932Z,17.52
2022-07-28T23:34:33.807Z,17.34
2022-07-28T23:37:30.636Z,17.33
2022-07-28T23:40:27.667Z,17.28
2022-07-28T23:43:24.501Z,17.32
2022-07-28T23:46:21.793Z,17.27
2022-07-28T23:49:19.224Z,17.30
2022-07-28T23:52:16.126Z,17.16
2022-07-28T23:55:12.979Z,17.20
2022-07-28T23:58:09.824Z,17.08
